sensor_id;sensor_type;location;lat;lon;timestamp;P1;durP1;ratioP1;P2;durP2;ratioP2
14272;SDS011;7220;49.450;11.052;2022-12-07T07:51:20;36.03;;;17.13;;
14272;SDS011;7220;49.450;11.052;2022-12-07T07:55:51;21.55;;;13.52;;
14272;SDS011;7220;49.450;11.052;2022-12-07T07:59:54;15.00;;;9.55;;
14272;SDS011;7220;49.450;11.052;2022-12-07T08:03:54;6.38;;;4.22;;
14272;SDS011;7220;49.450;11.052;2022-12-07T08:07:55;13.83;;;12.07;;
14272;SDS011;7220;49.450;11.052;2022-12-07T08:11:57;14.88;;;12.13;;
14272;SDS011;7220;49.450;11.052;2022-12-07T08:15:57;17.77;;;13.40;;
14272;SDS011;7220;49.450;11.052;2022-12-07T08:19:58;15.57;;;13.30;;
14272;SDS011;7220;49.450;11.052;2022-12-07T08:23:59;17.08;;;13.30;;
14272;SDS011;7220;49.450;11.052;2022-12-07T08:27:59;15.73;;;12.70;;
14272;SDS011;7220;49.450;11.052;2022-12-07T08:32:00;17.85;;;13.13;;
14272;SDS011;7220;49.450;11.052;2022-12-07T08:36:05;22.30;;;14.35;;
14272;SDS011;7220;49.450;11.052;2022-12-07T08:40:08;18.65;;;13.10;;
14272;SDS011;7220;49.450;11.052;2022-12-07T08:44:10;21.67;;;13.63;;
14272;SDS011;7220;49.450;11.052;2022-12-07T08:48:10;17.70;;;12.35;;
14272;SDS011;7220;49.450;11.052;2022-12-07T08:52:14;19.23;;;13.15;;
14272;SDS011;7220;49.450;11.052;2022-12-07T08:56:15;18.08;;;12.95;;
14272;SDS011;7220;49.450;11.052;2022-12-07T09:00:16;17.75;;;12.35;;
14272;SDS011;7220;49.450;11.052;2022-12-07T09:04:20;16.90;;;12.07;;
14272;SDS011;7220;49.450;11.052;2022-12-07T09:08:21;17.90;;;12.13;;
14272;SDS011;7220;49.450;11.052;2022-12-07T09:12:26;16.10;;;11.65;;
14272;SDS011;7220;49.450;11.052;2022-12-07T09:16:26;16.42;;;11.88;;
14272;SDS011;7220;49.450;11.052;2022-12-07T09:20:26;20.13;;;11.13;;
14272;SDS011;7220;49.450;11.052;2022-12-07T09:24:26;16.35;;;11.27;;
14272;SDS011;7220;49.450;11.052;2022-12-07T09:28:27;17.65;;;11.63;;
14272;SDS011;7220;49.450;11.052;2022-12-07T09:32:28;14.57;;;10.43;;
14272;SDS011;7220;49.450;11.052;2022-12-07T09:36:28;16.77;;;10.63;;
14272;SDS011;7220;49.450;11.052;2022-12-07T09:40:29;15.73;;;10.30;;
14272;SDS011;7220;49.450;11.052;2022-12-07T09:44:29;15.50;;;10.50;;
14272;SDS011;7220;49.450;11.052;2022-12-07T09:48:33;14.15;;;10.15;;
14272;SDS011;7220;49.450;11.052;2022-12-07T09:52:36;15.85;;;9.85;;
14272;SDS011;7220;49.450;11.052;2022-12-07T09:56:36;14.43;;;9.90;;
14272;SDS011;7220;49.450;11.052;2022-12-07T10:00:37;14.10;;;10.02;;
14272;SDS011;7220;49.450;11.052;2022-12-07T10:04:37;17.13;;;10.68;;
14272;SDS011;7220;49.450;11.052;2022-12-07T10:08:37;14.52;;;10.20;;
14272;SDS011;7220;49.450;11.052;2022-12-07T10:12:57;16.45;;;9.82;;
14272;SDS011;7220;49.450;11.052;2022-12-07T10:18:13;14.25;;;10.02;;
14272;SDS011;7220;49.450;11.052;2022-12-07T10:21:49;14.65;;;10.73;;
14272;SDS011;7220;49.450;11.052;2022-12-07T10:26:19;16.95;;;11.05;;
14272;SDS011;7220;49.450;11.052;2022-12-07T10:30:20;22.63;;;11.93;;
14272;SDS011;7220;49.450;11.052;2022-12-07T10:34:21;18.15;;;12.48;;
14272;SDS011;7220;49.450;11.052;2022-12-07T10:38:27;15.55;;;10.18;;
14272;SDS011;7220;49.450;11.052;2022-12-07T10:42:29;16.13;;;10.10;;
14272;SDS011;7220;49.450;11.052;2022-12-07T10:46:36;13.43;;;10.35;;
14272;SDS011;7220;49.450;11.052;2022-12-07T11:03:36;12.77;;;9.93;;
14272;SDS011;7220;49.450;11.052;2022-12-07T11:07:50;15.18;;;10.52;;
14272;SDS011;7220;49.450;11.052;2022-12-07T11:20:44;15.35;;;10.38;;
14272;SDS011;7220;49.450;11.052;2022-12-07T11:29:47;14.65;;;10.75;;
14272;SDS011;7220;49.450;11.052;2022-12-07T11:38:14;15.65;;;10.98;;
14272;SDS011;7220;49.450;11.052;2022-12-07T11:46:33;13.77;;;10.43;;
14272;SDS011;7220;49.450;11.052;2022-12-07T11:50:54;11.77;;;10.32;;
14272;SDS011;7220;49.450;11.052;2022-12-07T11:55:00;14.02;;;10.52;;
14272;SDS011;7220;49.450;11.052;2022-12-07T11:59:19;14.07;;;10.52;;
14272;SDS011;7220;49.450;11.052;2022-12-07T12:03:28;13.52;;;10.50;;
14272;SDS011;7220;49.450;11.052;2022-12-07T12:07:33;15.60;;;11.48;;
14272;SDS011;7220;49.450;11.052;2022-12-07T12:16:27;15.80;;;10.77;;
14272;SDS011;7220;49.450;11.052;2022-12-07T12:25:06;13.50;;;10.00;;
14272;SDS011;7220;49.450;11.052;2022-12-07T12:29:31;14.80;;;10.63;;
14272;SDS011;7220;49.450;11.052;2022-12-07T12:33:45;12.75;;;9.57;;
14272;SDS011;7220;49.450;11.052;2022-12-07T12:37:48;15.40;;;10.80;;
14272;SDS011;7220;49.450;11.052;2022-12-07T12:41:52;15.45;;;11.13;;
14272;SDS011;7220;49.450;11.052;2022-12-07T12:54:31;13.05;;;9.95;;
14272;SDS011;7220;49.450;11.052;2022-12-07T12:58:34;14.52;;;10.52;;
14272;SDS011;7220;49.450;11.052;2022-12-07T13:02:36;14.20;;;10.38;;
14272;SDS011;7220;49.450;11.052;2022-12-07T13:06:47;15.85;;;10.63;;
14272;SDS011;7220;49.450;11.052;2022-12-07T13:10:47;13.80;;;11.05;;
14272;SDS011;7220;49.450;11.052;2022-12-07T13:14:57;13.43;;;10.75;;
14272;SDS011;7220;49.450;11.052;2022-12-07T13:18:58;14.63;;;10.52;;
14272;SDS011;7220;49.450;11.052;2022-12-07T13:22:59;14.95;;;10.73;;
14272;SDS011;7220;49.450;11.052;2022-12-07T13:26:59;13.90;;;10.25;;
14272;SDS011;7220;49.450;11.052;2022-12-07T13:39:34;18.30;;;14.80;;
14272;SDS011;7220;49.450;11.052;2022-12-07T13:43:52;16.50;;;12.15;;
14272;SDS011;7220;49.450;11.052;2022-12-07T13:48:01;15.75;;;11.80;;
14272;SDS011;7220;49.450;11.052;2022-12-07T13:52:13;18.13;;;12.35;;
14272;SDS011;7220;49.450;11.052;2022-12-07T13:56:16;14.80;;;10.38;;
14272;SDS011;7220;49.450;11.052;2022-12-07T14:00:17;14.82;;;10.77;;
14272;SDS011;7220;49.450;11.052;2022-12-07T14:08:36;15.60;;;12.00;;
14272;SDS011;7220;49.450;11.052;2022-12-07T14:12:37;15.38;;;10.63;;
14272;SDS011;7220;49.450;11.052;2022-12-07T14:16:37;13.63;;;10.43;;
14272;SDS011;7220;49.450;11.052;2022-12-07T14:20:39;14.93;;;10.93;;
14272;SDS011;7220;49.450;11.052;2022-12-07T14:24:41;13.98;;;10.90;;
14272;SDS011;7220;49.450;11.052;2022-12-07T14:28:43;14.95;;;11.25;;
14272;SDS011;7220;49.450;11.052;2022-12-07T14:32:43;15.57;;;10.95;;
14272;SDS011;7220;49.450;11.052;2022-12-07T14:36:48;15.52;;;12.00;;
14272;SDS011;7220;49.450;11.052;2022-12-07T14:40:48;16.52;;;12.30;;
14272;SDS011;7220;49.450;11.052;2022-12-07T14:44:49;14.52;;;11.48;;
14272;SDS011;7220;49.450;11.052;2022-12-07T14:48:49;15.90;;;11.70;;
14272;SDS011;7220;49.450;11.052;2022-12-07T14:52:51;15.98;;;12.48;;
14272;SDS011;7220;49.450;11.052;2022-12-07T14:56:55;16.80;;;11.82;;
14272;SDS011;7220;49.450;11.052;2022-12-07T15:00:55;8.40;;;7.30;;
14272;SDS011;7220;49.450;11.052;2022-12-07T15:04:56;10.73;;;7.88;;
14272;SDS011;7220;49.450;11.052;2022-12-07T15:08:56;12.48;;;10.23;;
14272;SDS011;7220;49.450;11.052;2022-12-07T15:13:00;15.00;;;10.98;;
14272;SDS011;7220;49.450;11.052;2022-12-07T15:17:20;15.63;;;9.95;;
14272;SDS011;7220;49.450;11.052;2022-12-07T15:21:21;12.45;;;9.60;;
14272;SDS011;7220;49.450;11.052;2022-12-07T15:25:21;15.52;;;10.68;;
14272;SDS011;7220;49.450;11.052;2022-12-07T15:29:21;13.65;;;10.63;;
14272;SDS011;7220;49.450;11.052;2022-12-07T15:33:22;16.05;;;11.02;;
14272;SDS011;7220;49.450;11.052;2022-12-07T15:37:22;15.57;;;10.65;;
14272;SDS011;7220;49.450;11.052;2022-12-07T15:41:23;16.45;;;11.45;;
14272;SDS011;7220;49.450;11.052;2022-12-07T15:45:23;22.73;;;17.40;;
14272;SDS011;7220;49.450;11.052;2022-12-07T15:49:24;16.48;;;11.65;;
14272;SDS011;7220;49.450;11.052;2022-12-07T15:53:24;13.30;;;11.85;;
14272;SDS011;7220;49.450;11.052;2022-12-07T15:57:24;16.27;;;11.85;;
14272;SDS011;7220;49.450;11.052;2022-12-07T16:01:25;16.67;;;11.75;;
14272;SDS011;7220;49.450;11.052;2022-12-07T16:05:25;15.75;;;11.23;;
14272;SDS011;7220;49.450;11.052;2022-12-07T16:09:25;13.98;;;11.30;;
14272;SDS011;7220;49.450;11.052;2022-12-07T16:13:26;15.57;;;11.65;;
14272;SDS011;7220;49.450;11.052;2022-12-07T16:17:27;14.43;;;10.85;;
14272;SDS011;7220;49.450;11.052;2022-12-07T16:21:27;18.83;;;11.07;;
14272;SDS011;7220;49.450;11.052;2022-12-07T16:25:27;15.68;;;11.88;;
14272;SDS011;7220;49.450;11.052;2022-12-07T16:29:27;14.43;;;11.55;;
14272;SDS011;7220;49.450;11.052;2022-12-07T16:33:28;16.23;;;11.23;;
14272;SDS011;7220;49.450;11.052;2022-12-07T16:37:28;17.30;;;12.63;;
14272;SDS011;7220;49.450;11.052;2022-12-07T16:41:28;15.52;;;12.63;;
14272;SDS011;7220;49.450;11.052;2022-12-07T16:45:29;17.27;;;12.35;;
14272;SDS011;7220;49.450;11.052;2022-12-07T16:49:29;40.50;;;26.13;;
14272;SDS011;7220;49.450;11.052;2022-12-07T16:53:29;31.33;;;22.42;;
14272;SDS011;7220;49.450;11.052;2022-12-07T16:57:30;16.90;;;12.18;;
14272;SDS011;7220;49.450;11.052;2022-12-07T17:01:32;20.17;;;13.27;;
14272;SDS011;7220;49.450;11.052;2022-12-07T17:05:38;18.95;;;13.85;;
14272;SDS011;7220;49.450;11.052;2022-12-07T17:09:39;17.73;;;12.52;;
14272;SDS011;7220;49.450;11.052;2022-12-07T17:13:40;20.65;;;13.63;;
14272;SDS011;7220;49.450;11.052;2022-12-07T17:17:59;16.55;;;12.52;;
14272;SDS011;7220;49.450;11.052;2022-12-07T17:21:59;18.25;;;12.50;;
14272;SDS011;7220;49.450;11.052;2022-12-07T17:26:03;18.98;;;13.50;;
14272;SDS011;7220;49.450;11.052;2022-12-07T17:30:08;20.25;;;13.65;;
14272;SDS011;7220;49.450;11.052;2022-12-07T17:34:13;20.25;;;14.57;;
14272;SDS011;7220;49.450;11.052;2022-12-07T17:38:14;18.58;;;13.90;;
14272;SDS011;7220;49.450;11.052;2022-12-07T17:42:15;21.30;;;14.15;;
14272;SDS011;7220;49.450;11.052;2022-12-07T17:46:34;22.17;;;15.15;;
14272;SDS011;7220;49.450;11.052;2022-12-07T17:50:35;23.58;;;15.52;;
14272;SDS011;7220;49.450;11.052;2022-12-07T17:54:54;19.08;;;14.73;;
14272;SDS011;7220;49.450;11.052;2022-12-07T17:58:57;22.35;;;16.50;;
14272;SDS011;7220;49.450;11.052;2022-12-07T18:02:57;21.23;;;14.43;;
14272;SDS011;7220;49.450;11.052;2022-12-07T18:06:57;22.90;;;15.30;;
14272;SDS011;7220;49.450;11.052;2022-12-07T18:10:58;21.35;;;14.68;;
14272;SDS011;7220;49.450;11.052;2022-12-07T18:14:59;20.23;;;15.65;;
14272;SDS011;7220;49.450;11.052;2022-12-07T18:19:04;19.63;;;13.77;;
14272;SDS011;7220;49.450;11.052;2022-12-07T18:23:05;22.33;;;15.55;;
14272;SDS011;7220;49.450;11.052;2022-12-07T18:27:06;17.35;;;13.23;;
14272;SDS011;7220;49.450;11.052;2022-12-07T18:31:06;20.67;;;15.43;;
14272;SDS011;7220;49.450;11.052;2022-12-07T18:35:06;19.40;;;13.80;;
14272;SDS011;7220;49.450;11.052;2022-12-07T18:39:07;18.60;;;14.35;;
14272;SDS011;7220;49.450;11.052;2022-12-07T18:43:08;24.42;;;16.42;;
14272;SDS011;7220;49.450;11.052;2022-12-07T18:47:09;32.15;;;22.35;;
14272;SDS011;7220;49.450;11.052;2022-12-07T18:51:10;18.98;;;14.63;;
14272;SDS011;7220;49.450;11.052;2022-12-07T18:55:12;19.73;;;14.18;;
14272;SDS011;7220;49.450;11.052;2022-12-07T18:59:13;23.77;;;15.57;;
14272;SDS011;7220;49.450;11.052;2022-12-07T19:03:31;18.42;;;14.20;;
14272;SDS011;7220;49.450;11.052;2022-12-07T19:07:32;19.42;;;14.23;;
14272;SDS011;7220;49.450;11.052;2022-12-07T19:11:32;23.05;;;15.65;;
14272;SDS011;7220;49.450;11.052;2022-12-07T19:15:48;23.38;;;15.45;;
14272;SDS011;7220;49.450;11.052;2022-12-07T19:19:48;16.40;;;13.93;;
14272;SDS011;7220;49.450;11.052;2022-12-07T19:23:48;22.27;;;15.05;;
14272;SDS011;7220;49.450;11.052;2022-12-07T19:27:50;18.05;;;14.85;;
14272;SDS011;7220;49.450;11.052;2022-12-07T19:31:50;19.27;;;14.23;;
14272;SDS011;7220;49.450;11.052;2022-12-07T19:35:50;21.25;;;14.70;;
14272;SDS011;7220;49.450;11.052;2022-12-07T19:39:50;17.75;;;13.38;;
14272;SDS011;7220;49.450;11.052;2022-12-07T19:43:51;19.27;;;14.77;;
14272;SDS011;7220;49.450;11.052;2022-12-07T19:47:51;18.00;;;13.70;;
14272;SDS011;7220;49.450;11.052;2022-12-07T19:51:52;17.63;;;13.80;;
14272;SDS011;7220;49.450;11.052;2022-12-07T19:55:55;19.40;;;14.02;;
14272;SDS011;7220;49.450;11.052;2022-12-07T19:59:56;22.42;;;16.13;;
14272;SDS011;7220;49.450;11.052;2022-12-07T20:03:57;24.60;;;16.50;;
14272;SDS011;7220;49.450;11.052;2022-12-07T20:07:57;21.60;;;15.70;;
14272;SDS011;7220;49.450;11.052;2022-12-07T20:11:58;20.38;;;15.93;;
14272;SDS011;7220;49.450;11.052;2022-12-07T20:16:17;20.17;;;14.88;;
14272;SDS011;7220;49.450;11.052;2022-12-07T20:20:18;22.08;;;15.88;;
14272;SDS011;7220;49.450;11.052;2022-12-07T20:24:19;18.48;;;14.30;;
14272;SDS011;7220;49.450;11.052;2022-12-07T20:28:21;24.02;;;15.07;;
14272;SDS011;7220;49.450;11.052;2022-12-07T20:32:23;20.73;;;15.57;;
14272;SDS011;7220;49.450;11.052;2022-12-07T20:36:23;18.73;;;14.32;;
14272;SDS011;7220;49.450;11.052;2022-12-07T20:40:24;20.75;;;14.57;;
14272;SDS011;7220;49.450;11.052;2022-12-07T20:44:24;20.73;;;15.20;;
14272;SDS011;7220;49.450;11.052;2022-12-07T20:48:25;22.42;;;15.50;;
14272;SDS011;7220;49.450;11.052;2022-12-07T20:52:25;21.30;;;15.00;;
14272;SDS011;7220;49.450;11.052;2022-12-07T20:56:27;19.85;;;15.32;;
14272;SDS011;7220;49.450;11.052;2022-12-07T21:00:28;22.42;;;15.48;;
14272;SDS011;7220;49.450;11.052;2022-12-07T21:04:29;22.38;;;15.18;;
14272;SDS011;7220;49.450;11.052;2022-12-07T21:08:29;22.80;;;15.65;;
14272;SDS011;7220;49.450;11.052;2022-12-07T21:12:29;21.00;;;14.50;;
14272;SDS011;7220;49.450;11.052;2022-12-07T21:16:31;24.13;;;15.60;;
14272;SDS011;7220;49.450;11.052;2022-12-07T21:20:32;20.65;;;14.00;;
14272;SDS011;7220;49.450;11.052;2022-12-07T21:24:32;18.58;;;13.52;;
14272;SDS011;7220;49.450;11.052;2022-12-07T21:28:32;18.27;;;14.13;;
14272;SDS011;7220;49.450;11.052;2022-12-07T21:32:33;21.58;;;14.32;;
14272;SDS011;7220;49.450;11.052;2022-12-07T21:36:33;20.02;;;14.75;;
14272;SDS011;7220;49.450;11.052;2022-12-07T21:40:37;21.92;;;14.80;;
14272;SDS011;7220;49.450;11.052;2022-12-07T21:44:37;20.52;;;13.45;;
14272;SDS011;7220;49.450;11.052;2022-12-07T21:48:38;20.05;;;14.00;;
14272;SDS011;7220;49.450;11.052;2022-12-07T21:52:38;18.27;;;13.45;;
14272;SDS011;7220;49.450;11.052;2022-12-07T21:56:40;19.90;;;14.15;;
14272;SDS011;7220;49.450;11.052;2022-12-07T22:00:42;17.85;;;13.45;;
14272;SDS011;7220;49.450;11.052;2022-12-07T22:04:42;18.45;;;13.40;;
14272;SDS011;7220;49.450;11.052;2022-12-07T22:08:43;19.48;;;13.82;;
14272;SDS011;7220;49.450;11.052;2022-12-07T22:12:44;19.83;;;13.63;;
14272;SDS011;7220;49.450;11.052;2022-12-07T22:16:44;17.70;;;13.43;;
14272;SDS011;7220;49.450;11.052;2022-12-07T22:20:44;17.63;;;13.63;;
14272;SDS011;7220;49.450;11.052;2022-12-07T22:24:47;17.55;;;13.18;;
14272;SDS011;7220;49.450;11.052;2022-12-07T22:28:47;17.45;;;13.32;;
14272;SDS011;7220;49.450;11.052;2022-12-07T22:32:48;17.48;;;13.00;;
14272;SDS011;7220;49.450;11.052;2022-12-07T22:36:48;19.25;;;13.90;;
14272;SDS011;7220;49.450;11.052;2022-12-07T22:40:49;17.95;;;12.68;;
14272;SDS011;7220;49.450;11.052;2022-12-07T22:44:49;19.20;;;14.73;;
14272;SDS011;7220;49.450;11.052;2022-12-07T22:48:50;20.38;;;14.50;;
14272;SDS011;7220;49.450;11.052;2022-12-07T22:52:52;19.05;;;13.05;;
14272;SDS011;7220;49.450;11.052;2022-12-07T22:56:54;20.77;;;14.50;;
14272;SDS011;7220;49.450;11.052;2022-12-07T23:00:54;16.80;;;13.25;;
14272;SDS011;7220;49.450;11.052;2022-12-07T23:04:54;19.35;;;13.65;;
14272;SDS011;7220;49.450;11.052;2022-12-07T23:08:55;17.80;;;12.85;;
14272;SDS011;7220;49.450;11.052;2022-12-07T23:12:57;19.85;;;12.95;;
14272;SDS011;7220;49.450;11.052;2022-12-07T23:17:16;18.00;;;13.15;;
14272;SDS011;7220;49.450;11.052;2022-12-07T23:21:16;18.13;;;13.18;;
14272;SDS011;7220;49.450;11.052;2022-12-07T23:25:16;17.27;;;12.40;;
14272;SDS011;7220;49.450;11.052;2022-12-07T23:29:17;17.45;;;12.77;;
14272;SDS011;7220;49.450;11.052;2022-12-07T23:33:17;20.20;;;13.93;;
14272;SDS011;7220;49.450;11.052;2022-12-07T23:37:17;19.58;;;13.70;;
14272;SDS011;7220;49.450;11.052;2022-12-07T23:41:18;18.35;;;13.15;;
14272;SDS011;7220;49.450;11.052;2022-12-07T23:45:20;20.27;;;13.10;;
14272;SDS011;7220;49.450;11.052;2022-12-07T23:49:21;19.33;;;13.45;;
14272;SDS011;7220;49.450;11.052;2022-12-07T23:53:21;18.58;;;13.85;;
14272;SDS011;7220;49.450;11.052;2022-12-07T23:57:21;18.88;;;13.93;;
